sensor_id;sensor_type;location;lat;lon;timestamp;pressure;altitude;pressure_sealevel;temperature;humidity
25232;BME280;13176;51.140;6.290;2023-08-20T00:02:01;101336.22;;;24.40;78.17
25232;BME280;13176;51.140;6.290;2023-08-20T00:04:28;101335.38;;;24.40;78.04
25232;BME280;13176;51.140;6.290;2023-08-20T00:06:57;101330.53;;;24.46;78.06
25232;BME280;13176;51.140;6.290;2023-08-20T00:09:23;101338.72;;;24.43;78.03
25232;BME280;13176;51.140;6.290;2023-08-20T00:11:52;101343.09;;;24.44;77.48
25232;BME280;13176;51.140;6.290;2023-08-20T00:14:18;101333.47;;;24.42;77.56
25232;BME280;13176;51.140;6.290;2023-08-20T00:16:45;101337.81;;;24.29;77.77
25232;BME280;13176;51.140;6.290;2023-08-20T00:19:12;101335.38;;;24.40;77.58
25232;BME280;13176;51.140;6.290;2023-08-20T00:21:41;101326.53;;;24.39;77.12
25232;BME280;13176;51.140;6.290;2023-08-20T00:24:09;101325.94;;;24.34;77.08
25232;BME280;13176;51.140;6.290;2023-08-20T00:26:35;101332.53;;;24.43;77.26
25232;BME280;13176;51.140;6.290;2023-08-20T00:29:02;101326.53;;;24.39;76.88
25232;BME280;13176;51.140;6.290;2023-08-20T00:31:29;101332.81;;;24.38;77.71
25232;BME280;13176;51.140;6.290;2023-08-20T00:33:56;101330.16;;;24.38;76.66
25232;BME280;13176;51.140;6.290;2023-08-20T00:36:32;101333.00;;;24.35;77.77
25232;BME280;13176;51.140;6.290;2023-08-20T00:38:59;101327.66;;;24.35;77.14
25232;BME280;13176;51.140;6.290;2023-08-20T00:41:25;101331.47;;;24.31;78.06
25232;BME280;13176;51.140;6.290;2023-08-20T00:43:51;101327.72;;;24.20;79.29
25232;BME280;13176;51.140;6.290;2023-08-20T00:46:18;101323.59;;;24.15;80.53
25232;BME280;13176;51.140;6.290;2023-08-20T00:48:44;101323.22;;;24.21;79.62
25232;BME280;13176;51.140;6.290;2023-08-20T00:51:10;101338.88;;;24.27;79.03
25232;BME280;13176;51.140;6.290;2023-08-20T00:53:37;101339.41;;;24.18;79.84
25232;BME280;13176;51.140;6.290;2023-08-20T00:56:03;101338.63;;;24.02;80.90
25232;BME280;13176;51.140;6.290;2023-08-20T00:58:30;101341.03;;;23.91;82.32
25232;BME280;13176;51.140;6.290;2023-08-20T01:00:57;101336.84;;;23.87;83.14
25232;BME280;13176;51.140;6.290;2023-08-20T01:03:23;101339.34;;;23.90;82.93
25232;BME280;13176;51.140;6.290;2023-08-20T01:05:50;101341.53;;;23.97;82.40
25232;BME280;13176;51.140;6.290;2023-08-20T01:08:23;101329.69;;;24.03;82.15
25232;BME280;13176;51.140;6.290;2023-08-20T01:10:58;101331.75;;;23.98;82.50
25232;BME280;13176;51.140;6.290;2023-08-20T01:13:27;101339.47;;;24.02;82.74
25232;BME280;13176;51.140;6.290;2023-08-20T01:15:53;101339.19;;;24.07;82.43
25232;BME280;13176;51.140;6.290;2023-08-20T01:18:20;101342.25;;;24.01;83.08
25232;BME280;13176;51.140;6.290;2023-08-20T01:20:47;101342.78;;;23.92;83.25
25232;BME280;13176;51.140;6.290;2023-08-20T01:28:29;101345.69;;;24.03;83.83
25232;BME280;13176;51.140;6.290;2023-08-20T01:30:56;101358.91;;;24.04;83.49
25232;BME280;13176;51.140;6.290;2023-08-20T01:33:23;101361.88;;;24.00;83.90
25232;BME280;13176;51.140;6.290;2023-08-20T01:35:52;101363.16;;;23.93;84.68
25232;BME280;13176;51.140;6.290;2023-08-20T01:38:19;101361.00;;;23.84;84.68
25232;BME280;13176;51.140;6.290;2023-08-20T01:40:46;101364.28;;;23.89;85.29
25232;BME280;13176;51.140;6.290;2023-08-20T01:43:12;101366.66;;;23.93;85.06
25232;BME280;13176;51.140;6.290;2023-08-20T01:45:39;101360.31;;;23.96;85.16
25232;BME280;13176;51.140;6.290;2023-08-20T01:48:05;101367.53;;;23.94;84.77
25232;BME280;13176;51.140;6.290;2023-08-20T01:50:33;101374.78;;;23.92;85.00
25232;BME280;13176;51.140;6.290;2023-08-20T01:53:01;101376.31;;;23.96;84.72
25232;BME280;13176;51.140;6.290;2023-08-20T01:55:29;101371.16;;;23.93;84.36
25232;BME280;13176;51.140;6.290;2023-08-20T01:57:58;101371.50;;;23.87;84.54
25232;BME280;13176;51.140;6.290;2023-08-20T02:00:24;101379.00;;;23.80;85.19
25232;BME280;13176;51.140;6.290;2023-08-20T02:02:50;101388.00;;;23.78;86.08
25232;BME280;13176;51.140;6.290;2023-08-20T02:05:17;101391.13;;;23.86;84.92
25232;BME280;13176;51.140;6.290;2023-08-20T02:07:44;101401.78;;;23.86;84.48
25232;BME280;13176;51.140;6.290;2023-08-20T02:10:10;101409.19;;;23.81;84.95
25232;BME280;13176;51.140;6.290;2023-08-20T02:12:36;101416.41;;;23.79;85.18
25232;BME280;13176;51.140;6.290;2023-08-20T02:15:03;101413.81;;;23.77;85.44
25232;BME280;13176;51.140;6.290;2023-08-20T02:17:30;101407.47;;;23.80;85.65
25232;BME280;13176;51.140;6.290;2023-08-20T02:19:56;101400.06;;;23.85;85.09
25232;BME280;13176;51.140;6.290;2023-08-20T02:22:22;101383.91;;;23.88;84.38
25232;BME280;13176;51.140;6.290;2023-08-20T02:24:49;101392.50;;;23.93;84.03
25232;BME280;13176;51.140;6.290;2023-08-20T02:27:15;101401.44;;;23.92;83.90
25232;BME280;13176;51.140;6.290;2023-08-20T02:29:41;101402.03;;;23.97;83.79
25232;BME280;13176;51.140;6.290;2023-08-20T02:32:08;101396.88;;;23.94;83.01
25232;BME280;13176;51.140;6.290;2023-08-20T02:34:34;101393.44;;;23.92;82.72
25232;BME280;13176;51.140;6.290;2023-08-20T02:37:00;101394.22;;;23.94;82.32
25232;BME280;13176;51.140;6.290;2023-08-20T02:39:27;101405.22;;;23.88;82.74
25232;BME280;13176;51.140;6.290;2023-08-20T02:41:53;101399.97;;;23.86;82.84
25232;BME280;13176;51.140;6.290;2023-08-20T02:44:20;101400.25;;;23.82;82.23
25232;BME280;13176;51.140;6.290;2023-08-20T02:46:46;101413.41;;;23.85;82.60
25232;BME280;13176;51.140;6.290;2023-08-20T02:49:12;101412.28;;;23.89;81.50
25232;BME280;13176;51.140;6.290;2023-08-20T02:51:42;101410.91;;;23.82;81.73
25232;BME280;13176;51.140;6.290;2023-08-20T02:54:09;101408.66;;;23.74;82.24
25232;BME280;13176;51.140;6.290;2023-08-20T02:56:35;101408.22;;;23.66;83.09
25232;BME280;13176;51.140;6.290;2023-08-20T02:59:01;101412.25;;;23.58;83.47
25232;BME280;13176;51.140;6.290;2023-08-20T03:01:28;101421.03;;;23.60;83.54
25232;BME280;13176;51.140;6.290;2023-08-20T03:03:54;101422.75;;;23.61;83.20
25232;BME280;13176;51.140;6.290;2023-08-20T03:06:21;101421.97;;;23.59;83.25
25232;BME280;13176;51.140;6.290;2023-08-20T03:08:47;101419.91;;;23.64;82.71
25232;BME280;13176;51.140;6.290;2023-08-20T03:11:13;101420.09;;;23.61;83.21
25232;BME280;13176;51.140;6.290;2023-08-20T03:13:39;101421.03;;;23.60;83.29
25232;BME280;13176;51.140;6.290;2023-08-20T03:16:06;101417.44;;;23.61;82.65
25232;BME280;13176;51.140;6.290;2023-08-20T03:18:32;101423.69;;;23.60;82.67
25232;BME280;13176;51.140;6.290;2023-08-20T03:20:59;101420.88;;;23.63;82.22
25232;BME280;13176;51.140;6.290;2023-08-20T03:23:25;101424.66;;;23.59;82.92
25232;BME280;13176;51.140;6.290;2023-08-20T03:25:51;101430.16;;;23.56;83.10
25232;BME280;13176;51.140;6.290;2023-08-20T03:28:18;101433.25;;;23.48;82.92
25232;BME280;13176;51.140;6.290;2023-08-20T03:30:45;101434.25;;;23.46;82.88
25232;BME280;13176;51.140;6.290;2023-08-20T03:33:11;101427.69;;;23.36;83.88
25232;BME280;13176;51.140;6.290;2023-08-20T03:35:38;101418.75;;;23.37;83.75
25232;BME280;13176;51.140;6.290;2023-08-20T03:38:04;101419.19;;;23.45;82.98
25232;BME280;13176;51.140;6.290;2023-08-20T03:40:31;101425.03;;;23.51;82.65
25232;BME280;13176;51.140;6.290;2023-08-20T03:42:57;101417.31;;;23.47;82.82
25232;BME280;13176;51.140;6.290;2023-08-20T03:45:24;101408.09;;;23.52;82.05
25232;BME280;13176;51.140;6.290;2023-08-20T03:47:50;101414.66;;;23.47;82.02
25232;BME280;13176;51.140;6.290;2023-08-20T03:50:16;101407.44;;;23.49;82.06
25232;BME280;13176;51.140;6.290;2023-08-20T03:52:43;101418.44;;;23.43;81.60
25232;BME280;13176;51.140;6.290;2023-08-20T03:55:09;101429.94;;;23.28;83.56
25232;BME280;13176;51.140;6.290;2023-08-20T03:57:35;101428.72;;;23.18;83.98
25232;BME280;13176;51.140;6.290;2023-08-20T04:00:02;101430.91;;;23.10;84.21
25232;BME280;13176;51.140;6.290;2023-08-20T04:02:30;101432.06;;;23.05;84.87
25232;BME280;13176;51.140;6.290;2023-08-20T04:04:57;101424.00;;;23.06;84.14
25232;BME280;13176;51.140;6.290;2023-08-20T04:07:23;101433.50;;;23.12;84.24
25232;BME280;13176;51.140;6.290;2023-08-20T04:09:50;101435.75;;;23.19;84.16
25232;BME280;13176;51.140;6.290;2023-08-20T04:12:16;101428.53;;;23.21;82.99
25232;BME280;13176;51.140;6.290;2023-08-20T04:14:42;101421.31;;;23.23;83.34
25232;BME280;13176;51.140;6.290;2023-08-20T04:17:09;101424.16;;;23.20;82.55
25232;BME280;13176;51.140;6.290;2023-08-20T04:19:36;101426.09;;;23.16;82.32
25232;BME280;13176;51.140;6.290;2023-08-20T04:22:02;101437.31;;;23.23;82.31
25232;BME280;13176;51.140;6.290;2023-08-20T04:24:29;101431.28;;;23.19;81.89
25232;BME280;13176;51.140;6.290;2023-08-20T04:26:55;101444.34;;;23.07;82.53
25232;BME280;13176;51.140;6.290;2023-08-20T04:29:23;101444.41;;;22.90;84.22
25232;BME280;13176;51.140;6.290;2023-08-20T04:31:49;101435.00;;;22.83;85.10
25232;BME280;13176;51.140;6.290;2023-08-20T04:34:16;101437.97;;;22.77;84.32
25232;BME280;13176;51.140;6.290;2023-08-20T04:36:42;101434.22;;;22.81;83.58
25232;BME280;13176;51.140;6.290;2023-08-20T04:39:08;101432.88;;;22.90;83.26
25232;BME280;13176;51.140;6.290;2023-08-20T04:41:35;101438.56;;;22.99;83.20
25232;BME280;13176;51.140;6.290;2023-08-20T04:44:02;101440.13;;;23.03;82.94
25232;BME280;13176;51.140;6.290;2023-08-20T04:46:28;101449.22;;;22.99;82.42
25232;BME280;13176;51.140;6.290;2023-08-20T04:48:55;101442.84;;;22.86;83.54
25232;BME280;13176;51.140;6.290;2023-08-20T04:51:21;101448.09;;;22.71;84.42
25232;BME280;13176;51.140;6.290;2023-08-20T04:53:48;101450.91;;;22.68;84.60
25232;BME280;13176;51.140;6.290;2023-08-20T04:56:14;101456.00;;;22.72;84.30
25232;BME280;13176;51.140;6.290;2023-08-20T04:58:40;101455.38;;;22.84;83.99
25232;BME280;13176;51.140;6.290;2023-08-20T05:01:07;101458.34;;;22.78;84.25
25232;BME280;13176;51.140;6.290;2023-08-20T05:03:35;101456.00;;;22.72;85.70
25232;BME280;13176;51.140;6.290;2023-08-20T05:06:01;101459.44;;;22.74;85.74
25232;BME280;13176;51.140;6.290;2023-08-20T05:08:29;101457.09;;;22.85;85.06
25232;BME280;13176;51.140;6.290;2023-08-20T05:10:55;101463.81;;;22.92;84.88
25232;BME280;13176;51.140;6.290;2023-08-20T05:13:21;101466.22;;;22.97;84.95
25232;BME280;13176;51.140;6.290;2023-08-20T05:15:48;101466.91;;;23.00;84.13
25232;BME280;13176;51.140;6.290;2023-08-20T05:18:14;101467.06;;;22.97;84.05
25232;BME280;13176;51.140;6.290;2023-08-20T05:20:41;101469.44;;;23.03;84.17
25232;BME280;13176;51.140;6.290;2023-08-20T05:23:07;101472.44;;;23.14;83.88
25232;BME280;13176;51.140;6.290;2023-08-20T05:25:33;101471.31;;;23.18;84.32
25232;BME280;13176;51.140;6.290;2023-08-20T05:28:00;101468.41;;;23.22;83.74
25232;BME280;13176;51.140;6.290;2023-08-20T05:30:27;101467.41;;;23.25;83.88
25232;BME280;13176;51.140;6.290;2023-08-20T05:32:53;101460.19;;;23.27;83.76
25232;BME280;13176;51.140;6.290;2023-08-20T05:35:20;101463.63;;;23.29;83.51
25232;BME280;13176;51.140;6.290;2023-08-20T05:37:46;101468.25;;;23.25;84.01
25232;BME280;13176;51.140;6.290;2023-08-20T05:40:13;101463.97;;;23.23;84.28
25232;BME280;13176;51.140;6.290;2023-08-20T05:42:39;101470.44;;;23.17;84.58
25232;BME280;13176;51.140;6.290;2023-08-20T05:45:05;101475.09;;;23.14;84.92
25232;BME280;13176;51.140;6.290;2023-08-20T05:47:32;101483.94;;;23.14;85.34
25232;BME280;13176;51.140;6.290;2023-08-20T05:49:58;101475.41;;;23.08;86.31
25232;BME280;13176;51.140;6.290;2023-08-20T05:52:25;101480.72;;;23.08;86.20
25232;BME280;13176;51.140;6.290;2023-08-20T05:54:51;101496.56;;;23.11;86.24
25232;BME280;13176;51.140;6.290;2023-08-20T05:57:17;101498.03;;;23.16;86.51
25232;BME280;13176;51.140;6.290;2023-08-20T05:59:44;101490.75;;;23.20;86.51
25232;BME280;13176;51.140;6.290;2023-08-20T06:02:10;101484.22;;;23.25;86.28
25232;BME280;13176;51.140;6.290;2023-08-20T06:04:36;101483.56;;;23.22;86.24
25232;BME280;13176;51.140;6.290;2023-08-20T06:07:03;101485.28;;;23.23;86.30
25232;BME280;13176;51.140;6.290;2023-08-20T06:09:29;101490.28;;;23.29;86.13
25232;BME280;13176;51.140;6.290;2023-08-20T06:11:55;101487.94;;;23.23;86.38
25232;BME280;13176;51.140;6.290;2023-08-20T06:14:22;101489.56;;;23.25;86.49
25232;BME280;13176;51.140;6.290;2023-08-20T06:16:48;101488.38;;;23.31;86.21
25232;BME280;13176;51.140;6.290;2023-08-20T06:19:14;101489.75;;;23.38;86.40
25232;BME280;13176;51.140;6.290;2023-08-20T06:21:41;101488.44;;;23.46;85.76
25232;BME280;13176;51.140;6.290;2023-08-20T06:24:07;101491.69;;;23.51;85.51
25232;BME280;13176;51.140;6.290;2023-08-20T06:26:34;101489.63;;;23.56;85.34
25232;BME280;13176;51.140;6.290;2023-08-20T06:29:01;101477.88;;;23.60;85.74
25232;BME280;13176;51.140;6.290;2023-08-20T06:31:27;101482.19;;;23.63;85.22
25232;BME280;13176;51.140;6.290;2023-08-20T06:33:54;101482.19;;;23.63;84.71
25232;BME280;13176;51.140;6.290;2023-08-20T06:36:20;101483.81;;;23.65;83.95
25232;BME280;13176;51.140;6.290;2023-08-20T06:38:47;101491.53;;;23.70;84.58
25232;BME280;13176;51.140;6.290;2023-08-20T06:41:13;101494.13;;;23.71;84.62
25232;BME280;13176;51.140;6.290;2023-08-20T06:43:54;101493.25;;;23.71;84.88
25232;BME280;13176;51.140;6.290;2023-08-20T06:46:20;101497.66;;;23.72;85.08
25232;BME280;13176;51.140;6.290;2023-08-20T06:48:46;101494.81;;;23.75;85.25
25232;BME280;13176;51.140;6.290;2023-08-20T06:51:13;101489.19;;;23.81;84.89
25232;BME280;13176;51.140;6.290;2023-08-20T06:53:40;101490.63;;;23.86;84.63
25232;BME280;13176;51.140;6.290;2023-08-20T06:56:10;101493.06;;;23.91;84.63
25232;BME280;13176;51.140;6.290;2023-08-20T06:58:37;101483.00;;;23.96;84.20
25232;BME280;13176;51.140;6.290;2023-08-20T07:01:04;101489.91;;;24.00;83.58
25232;BME280;13176;51.140;6.290;2023-08-20T07:06:00;101483.69;;;24.15;83.13
25232;BME280;13176;51.140;6.290;2023-08-20T07:08:26;101487.63;;;24.23;82.72
25232;BME280;13176;51.140;6.290;2023-08-20T07:10:52;101490.03;;;24.27;82.11
25232;BME280;13176;51.140;6.290;2023-08-20T07:13:19;101488.94;;;24.31;81.82
25232;BME280;13176;51.140;6.290;2023-08-20T07:15:45;101492.25;;;24.35;81.72
25232;BME280;13176;51.140;6.290;2023-08-20T07:18:11;101484.75;;;24.41;81.63
25232;BME280;13176;51.140;6.290;2023-08-20T07:20:42;101485.34;;;24.46;81.17
25232;BME280;13176;51.140;6.290;2023-08-20T07:23:12;101483.13;;;24.54;81.06
25232;BME280;13176;51.140;6.290;2023-08-20T07:25:39;101493.63;;;24.57;80.50
25232;BME280;13176;51.140;6.290;2023-08-20T07:28:12;101493.94;;;24.67;80.31
25232;BME280;13176;51.140;6.290;2023-08-20T07:30:39;101494.66;;;24.70;80.31
25232;BME280;13176;51.140;6.290;2023-08-20T07:33:06;101497.69;;;24.78;80.01
25232;BME280;13176;51.140;6.290;2023-08-20T07:35:39;101493.72;;;24.85;79.66
25232;BME280;13176;51.140;6.290;2023-08-20T07:38:06;101495.84;;;24.94;79.06
25232;BME280;13176;51.140;6.290;2023-08-20T07:40:32;101489.00;;;25.04;78.49
25232;BME280;13176;51.140;6.290;2023-08-20T07:43:00;101490.53;;;25.08;78.28
25232;BME280;13176;51.140;6.290;2023-08-20T07:45:29;101493.78;;;25.13;78.01
25232;BME280;13176;51.140;6.290;2023-08-20T07:47:59;101490.19;;;25.14;77.75
25232;BME280;13176;51.140;6.290;2023-08-20T07:50:25;101490.19;;;25.14;77.40
25232;BME280;13176;51.140;6.290;2023-08-20T07:52:52;101490.00;;;25.17;77.27
25232;BME280;13176;51.140;6.290;2023-08-20T07:55:18;101499.94;;;25.29;77.33
25232;BME280;13176;51.140;6.290;2023-08-20T07:57:44;101491.06;;;25.43;76.28
25232;BME280;13176;51.140;6.290;2023-08-20T08:00:11;101500.31;;;25.51;76.26
25232;BME280;13176;51.140;6.290;2023-08-20T08:02:38;101500.72;;;25.59;75.86
25232;BME280;13176;51.140;6.290;2023-08-20T08:05:04;101492.50;;;25.62;76.40
25232;BME280;13176;51.140;6.290;2023-08-20T08:07:31;101488.88;;;25.77;75.48
25232;BME280;13176;51.140;6.290;2023-08-20T08:09:58;101501.91;;;25.83;74.81
25232;BME280;13176;51.140;6.290;2023-08-20T08:12:24;101499.56;;;25.91;74.85
25232;BME280;13176;51.140;6.290;2023-08-20T08:14:50;101504.91;;;25.91;75.09
25232;BME280;13176;51.140;6.290;2023-08-20T08:17:17;101492.09;;;25.96;74.89
25232;BME280;13176;51.140;6.290;2023-08-20T08:19:43;101499.03;;;26.12;75.25
25232;BME280;13176;51.140;6.290;2023-08-20T08:22:10;101500.69;;;26.15;75.36
25232;BME280;13176;51.140;6.290;2023-08-20T08:24:37;101502.97;;;26.21;75.02
25232;BME280;13176;51.140;6.290;2023-08-20T08:27:04;101503.41;;;26.27;74.79
25232;BME280;13176;51.140;6.290;2023-08-20T08:29:30;101510.66;;;26.39;75.19
25232;BME280;13176;51.140;6.290;2023-08-20T08:31:56;101509.66;;;26.40;74.65
25232;BME280;13176;51.140;6.290;2023-08-20T08:34:23;101499.66;;;26.44;74.97
25232;BME280;13176;51.140;6.290;2023-08-20T08:36:49;101511.47;;;26.54;75.14
25232;BME280;13176;51.140;6.290;2023-08-20T08:39:16;101513.69;;;26.47;75.36
25232;BME280;13176;51.140;6.290;2023-08-20T08:41:42;101512.38;;;26.67;74.96
25232;BME280;13176;51.140;6.290;2023-08-20T08:44:09;101514.22;;;26.78;74.78
25232;BME280;13176;51.140;6.290;2023-08-20T08:46:37;101519.06;;;26.86;73.94
25232;BME280;13176;51.140;6.290;2023-08-20T08:49:04;101518.63;;;26.79;73.79
25232;BME280;13176;51.140;6.290;2023-08-20T08:51:31;101523.94;;;26.93;73.35
25232;BME280;13176;51.140;6.290;2023-08-20T08:53:58;101520.22;;;27.08;74.18
25232;BME280;13176;51.140;6.290;2023-08-20T08:56:25;101518.63;;;27.18;73.50
25232;BME280;13176;51.140;6.290;2023-08-20T08:58:51;101523.22;;;27.29;73.56
25232;BME280;13176;51.140;6.290;2023-08-20T09:01:18;101527.97;;;27.25;72.43
25232;BME280;13176;51.140;6.290;2023-08-20T09:03:44;101520.47;;;27.30;72.24
25232;BME280;13176;51.140;6.290;2023-08-20T09:06:11;101524.75;;;27.33;72.55
25232;BME280;13176;51.140;6.290;2023-08-20T09:08:37;101532.03;;;27.31;72.08
25232;BME280;13176;51.140;6.290;2023-08-20T09:11:04;101525.38;;;27.36;72.51
25232;BME280;13176;51.140;6.290;2023-08-20T09:13:34;101531.63;;;27.37;72.02
25232;BME280;13176;51.140;6.290;2023-08-20T09:16:08;101528.59;;;27.16;72.02
25232;BME280;13176;51.140;6.290;2023-08-20T09:18:38;101532.31;;;27.14;71.37
25232;BME280;13176;51.140;6.290;2023-08-20T09:21:06;101532.44;;;27.12;72.21
25232;BME280;13176;51.140;6.290;2023-08-20T09:23:33;101530.09;;;27.20;71.64
25232;BME280;13176;51.140;6.290;2023-08-20T09:26:01;101540.41;;;27.26;71.85
25232;BME280;13176;51.140;6.290;2023-08-20T09:28:27;101530.31;;;27.42;71.62
25232;BME280;13176;51.140;6.290;2023-08-20T09:30:54;101500.94;;;27.41;71.65
25232;BME280;13176;51.140;6.290;2023-08-20T09:33:21;101522.81;;;27.72;70.46
25232;BME280;13176;51.140;6.290;2023-08-20T09:35:50;101518.28;;;27.85;69.44
25232;BME280;13176;51.140;6.290;2023-08-20T09:38:21;101525.16;;;27.89;67.87
25232;BME280;13176;51.140;6.290;2023-08-20T09:40:48;101519.41;;;28.06;68.07
25232;BME280;13176;51.140;6.290;2023-08-20T09:43:18;101530.47;;;28.14;67.95
25232;BME280;13176;51.140;6.290;2023-08-20T09:45:46;101518.84;;;28.26;68.91
25232;BME280;13176;51.140;6.290;2023-08-20T09:49:12;101479.38;;;28.03;65.89
25232;BME280;13176;51.140;6.290;2023-08-20T09:51:42;101498.66;;;28.20;67.06
25232;BME280;13176;51.140;6.290;2023-08-20T09:54:36;101524.41;;;28.23;66.13
25232;BME280;13176;51.140;6.290;2023-08-20T09:57:07;101496.13;;;28.06;65.66
25232;BME280;13176;51.140;6.290;2023-08-20T09:59:39;101429.63;;;27.62;65.35
25232;BME280;13176;51.140;6.290;2023-08-20T10:02:10;101500.13;;;28.01;66.42
25232;BME280;13176;51.140;6.290;2023-08-20T10:04:39;101437.19;;;27.44;67.03
25232;BME280;13176;51.140;6.290;2023-08-20T10:07:05;101521.19;;;27.82;67.73
25232;BME280;13176;51.140;6.290;2023-08-20T10:09:32;101532.22;;;28.02;66.83
25232;BME280;13176;51.140;6.290;2023-08-20T10:12:00;101524.06;;;28.04;67.51
25232;BME280;13176;51.140;6.290;2023-08-20T10:14:27;101492.84;;;28.14;67.90
25232;BME280;13176;51.140;6.290;2023-08-20T10:16:54;101490.69;;;28.19;67.40
25232;BME280;13176;51.140;6.290;2023-08-20T10:19:22;101508.88;;;28.51;65.44
25232;BME280;13176;51.140;6.290;2023-08-20T10:21:52;101525.16;;;28.84;66.01
25232;BME280;13176;51.140;6.290;2023-08-20T10:24:19;101493.66;;;28.86;66.17
25232;BME280;13176;51.140;6.290;2023-08-20T10:26:46;101517.84;;;28.97;65.50
25232;BME280;13176;51.140;6.290;2023-08-20T10:29:37;101530.91;;;29.25;63.06
25232;BME280;13176;51.140;6.290;2023-08-20T10:32:12;101513.72;;;29.04;63.21
25232;BME280;13176;51.140;6.290;2023-08-20T10:34:42;101516.00;;;28.87;62.03
25232;BME280;13176;51.140;6.290;2023-08-20T10:37:13;101479.97;;;28.66;62.54
25232;BME280;13176;51.140;6.290;2023-08-20T10:39:39;101474.25;;;28.47;62.52
25232;BME280;13176;51.140;6.290;2023-08-20T10:42:09;101503.44;;;28.64;62.61
25232;BME280;13176;51.140;6.290;2023-08-20T10:44:58;101529.78;;;29.06;62.73
25232;BME280;13176;51.140;6.290;2023-08-20T10:47:56;101534.91;;;29.19;59.83
25232;BME280;13176;51.140;6.290;2023-08-20T10:50:23;101465.97;;;29.08;60.73
25232;BME280;13176;51.140;6.290;2023-08-20T10:52:54;101486.28;;;29.33;62.04
25232;BME280;13176;51.140;6.290;2023-08-20T10:55:22;101526.25;;;29.83;59.58
25232;BME280;13176;51.140;6.290;2023-08-20T10:57:59;101485.47;;;29.88;61.09
25232;BME280;13176;51.140;6.290;2023-08-20T11:00:28;101495.34;;;29.87;60.05
25232;BME280;13176;51.140;6.290;2023-08-20T11:02:57;101522.31;;;29.65;58.96
25232;BME280;13176;51.140;6.290;2023-08-20T11:05:25;101492.63;;;29.11;59.98
25232;BME280;13176;51.140;6.290;2023-08-20T11:07:52;101532.50;;;29.27;60.32
25232;BME280;13176;51.140;6.290;2023-08-20T11:10:19;101519.28;;;29.24;60.50
25232;BME280;13176;51.140;6.290;2023-08-20T11:12:46;101515.34;;;29.17;58.95
25232;BME280;13176;51.140;6.290;2023-08-20T11:15:12;101492.31;;;29.48;59.12
25232;BME280;13176;51.140;6.290;2023-08-20T11:17:46;101508.13;;;29.85;59.20
25232;BME280;13176;51.140;6.290;2023-08-20T11:20:17;101531.31;;;30.30;56.33
25232;BME280;13176;51.140;6.290;2023-08-20T11:22:43;101505.38;;;30.71;54.72
25232;BME280;13176;51.140;6.290;2023-08-20T11:25:11;101529.09;;;31.70;54.30
25232;BME280;13176;51.140;6.290;2023-08-20T11:27:42;101524.16;;;31.54;53.69
25232;BME280;13176;51.140;6.290;2023-08-20T11:30:11;101517.09;;;31.13;53.15
25232;BME280;13176;51.140;6.290;2023-08-20T11:32:39;101503.16;;;30.76;53.98
25232;BME280;13176;51.140;6.290;2023-08-20T11:35:07;101494.94;;;30.35;54.71
25232;BME280;13176;51.140;6.290;2023-08-20T11:37:34;101490.00;;;30.09;56.04
25232;BME280;13176;51.140;6.290;2023-08-20T11:40:01;101483.63;;;29.77;56.45
25232;BME280;13176;51.140;6.290;2023-08-20T11:42:27;101499.06;;;29.64;55.91
25232;BME280;13176;51.140;6.290;2023-08-20T11:44:56;101485.72;;;29.63;56.24
25232;BME280;13176;51.140;6.290;2023-08-20T11:47:23;101500.78;;;29.76;56.95
25232;BME280;13176;51.140;6.290;2023-08-20T11:50:02;101518.88;;;30.07;55.26
25232;BME280;13176;51.140;6.290;2023-08-20T11:52:31;101501.97;;;29.94;54.72
25232;BME280;13176;51.140;6.290;2023-08-20T11:54:57;101493.41;;;29.89;55.89
25232;BME280;13176;51.140;6.290;2023-08-20T11:57:28;101478.69;;;29.93;55.53
25232;BME280;13176;51.140;6.290;2023-08-20T11:59:55;101448.75;;;29.98;55.95
25232;BME280;13176;51.140;6.290;2023-08-20T12:02:26;101481.53;;;30.14;54.97
25232;BME280;13176;51.140;6.290;2023-08-20T12:05:06;101473.06;;;29.96;55.65
25232;BME280;13176;51.140;6.290;2023-08-20T12:07:32;101468.44;;;29.87;56.16
25232;BME280;13176;51.140;6.290;2023-08-20T12:10:19;101476.53;;;29.98;53.60
25232;BME280;13176;51.140;6.290;2023-08-20T12:12:45;101480.78;;;30.12;54.95
25232;BME280;13176;51.140;6.290;2023-08-20T12:15:14;101449.81;;;30.17;53.27
25232;BME280;13176;51.140;6.290;2023-08-20T12:17:41;101477.91;;;30.35;53.09
25232;BME280;13176;51.140;6.290;2023-08-20T12:20:09;101414.56;;;30.09;53.86
25232;BME280;13176;51.140;6.290;2023-08-20T12:22:39;101478.69;;;30.89;53.68
25232;BME280;13176;51.140;6.290;2023-08-20T12:25:09;101491.66;;;30.95;52.04
25232;BME280;13176;51.140;6.290;2023-08-20T12:27:35;101466.53;;;30.63;51.57
25232;BME280;13176;51.140;6.290;2023-08-20T12:30:02;101464.09;;;30.29;52.55
25232;BME280;13176;51.140;6.290;2023-08-20T12:32:29;101463.22;;;30.28;53.07
25232;BME280;13176;51.140;6.290;2023-08-20T12:34:55;101479.50;;;30.37;53.31
25232;BME280;13176;51.140;6.290;2023-08-20T12:37:22;101450.47;;;30.30;51.40
25232;BME280;13176;51.140;6.290;2023-08-20T12:39:48;101458.03;;;30.47;52.80
25232;BME280;13176;51.140;6.290;2023-08-20T12:42:15;101447.94;;;30.60;51.83
25232;BME280;13176;51.140;6.290;2023-08-20T12:44:41;101455.19;;;30.80;50.98
25232;BME280;13176;51.140;6.290;2023-08-20T12:47:08;101443.22;;;30.73;51.44
25232;BME280;13176;51.140;6.290;2023-08-20T12:49:34;101459.25;;;30.54;51.53
25232;BME280;13176;51.140;6.290;2023-08-20T12:52:01;101420.06;;;30.39;52.62
25232;BME280;13176;51.140;6.290;2023-08-20T12:54:27;101442.81;;;30.57;54.22
25232;BME280;13176;51.140;6.290;2023-08-20T12:56:53;101444.16;;;30.83;52.13
25232;BME280;13176;51.140;6.290;2023-08-20T12:59:21;101464.28;;;31.20;51.89
25232;BME280;13176;51.140;6.290;2023-08-20T13:01:50;101404.47;;;30.94;50.75